createdAt,value
2022-11-27T00:01:17.834Z,9.84
2022-11-27T00:03:44.703Z,9.99
2022-11-27T00:06:17.756Z,9.54
2022-11-27T00:08:45.476Z,9.30
2022-11-27T00:11:20.355Z,9.46
2022-11-27T00:13:47.713Z,9.84
2022-11-27T00:16:15.251Z,9.28
2022-11-27T00:18:42.305Z,9.44
2022-11-27T00:21:12.549Z,9.50
2022-11-27T00:23:39.423Z,9.13
2022-11-27T00:26:07.093Z,9.48
2022-11-27T00:28:34.235Z,9.26
2022-11-27T00:31:02.909Z,9.46
2022-11-27T00:33:29.737Z,9.66
2022-11-27T00:35:56.345Z,10.06
2022-11-27T00:38:22.995Z,9.73
2022-11-27T00:40:49.647Z,9.78
2022-11-27T00:43:16.747Z,9.50
2022-11-27T00:45:43.229Z,9.33
2022-11-27T00:48:09.711Z,9.71
2022-11-27T00:50:36.271Z,9.29
2022-11-27T00:53:02.754Z,9.65
2022-11-27T00:55:29.338Z,9.32
2022-11-27T00:57:55.852Z,9.34
2022-11-27T01:00:23.049Z,9.12
2022-11-27T01:02:49.664Z,8.93
2022-11-27T01:05:16.429Z,9.08
2022-11-27T01:07:43.045Z,8.90
2022-11-27T01:10:10.093Z,9.25
2022-11-27T01:12:36.645Z,9.63
2022-11-27T01:15:03.637Z,9.21
2022-11-27T01:17:30.231Z,9.33
2022-11-27T01:19:56.733Z,9.09
2022-11-27T01:22:23.308Z,8.97
2022-11-27T01:24:49.830Z,8.72
2022-11-27T01:27:16.409Z,8.90
2022-11-27T01:29:43.079Z,8.72
2022-11-27T01:32:09.615Z,8.69
2022-11-27T01:34:36.146Z,9.21
2022-11-27T01:37:02.710Z,8.86
2022-11-27T01:39:29.206Z,9.04
2022-11-27T01:41:55.739Z,8.93
2022-11-27T01:44:25.290Z,8.79
2022-11-27T01:46:56.916Z,8.56
2022-11-27T01:49:23.543Z,8.25
2022-11-27T01:51:56.256Z,9.02
2022-11-27T01:54:26.146Z,8.98
2022-11-27T01:56:57.555Z,8.95
2022-11-27T01:59:24.896Z,8.23
2022-11-27T02:01:51.506Z,8.53
2022-11-27T02:04:19.370Z,8.76
2022-11-27T02:06:45.999Z,8.89
2022-11-27T02:09:12.778Z,8.92
2022-11-27T02:11:54.258Z,9.01
2022-11-27T02:14:53.396Z,8.45
2022-11-27T02:17:37.316Z,8.29
2022-11-27T02:20:19.258Z,8.61
2022-11-27T02:23:05.958Z,8.09
2022-11-27T02:25:50.727Z,8.22
2022-11-27T02:28:38.541Z,8.10
2022-11-27T02:31:14.262Z,7.68
2022-11-27T02:33:45.753Z,8.17
2022-11-27T02:36:19.040Z,8.14
2022-11-27T02:39:00.031Z,7.48
2022-11-27T02:41:33.633Z,7.29
2022-11-27T02:44:00.775Z,7.37
2022-11-27T02:46:28.819Z,7.50
2022-11-27T02:48:58.575Z,7.48
2022-11-27T02:51:38.993Z,7.27
2022-11-27T02:54:09.612Z,7.13
2022-11-27T02:56:38.658Z,7.35
2022-11-27T02:59:10.171Z,7.12
2022-11-27T03:01:42.905Z,7.42
2022-11-27T03:04:17.167Z,7.23
2022-11-27T03:06:48.229Z,7.64
2022-11-27T03:09:27.661Z,7.31
2022-11-27T03:11:54.618Z,7.19
2022-11-27T03:14:24.424Z,7.42
2022-11-27T03:17:03.599Z,7.46
2022-11-27T03:20:02.347Z,7.24
2022-11-27T03:22:31.543Z,7.13
2022-11-27T03:24:58.980Z,6.99
2022-11-27T03:27:37.072Z,6.88
2022-11-27T03:30:06.841Z,6.83
2022-11-27T03:32:34.064Z,6.80
2022-11-27T03:35:00.982Z,6.62
2022-11-27T03:37:27.795Z,6.44
2022-11-27T03:39:54.632Z,6.44
2022-11-27T03:42:30.923Z,6.48
2022-11-27T03:45:24.838Z,6.55
2022-11-27T03:48:15.753Z,6.42
2022-11-27T03:50:57.680Z,6.31
2022-11-27T03:53:46.068Z,6.35
2022-11-27T03:56:24.997Z,6.33
2022-11-27T03:58:55.989Z,6.22
2022-11-27T04:01:25.544Z,6.14
2022-11-27T04:03:52.383Z,6.16
2022-11-27T04:06:18.975Z,6.39
2022-11-27T04:08:48.917Z,6.13
2022-11-27T04:11:15.895Z,6.06
2022-11-27T04:13:42.397Z,6.25
2022-11-27T04:16:09.273Z,6.13
2022-11-27T04:18:35.921Z,6.00
2022-11-27T04:21:02.607Z,5.91
2022-11-27T04:23:29.085Z,5.99
2022-11-27T04:25:55.642Z,5.93
2022-11-27T04:28:22.246Z,5.94
2022-11-27T04:30:53.207Z,5.93
2022-11-27T04:33:20.045Z,6.00
2022-11-27T04:35:46.590Z,5.81
2022-11-27T04:38:13.240Z,5.88
2022-11-27T04:40:39.794Z,5.71
2022-11-27T04:43:06.294Z,5.69
2022-11-27T04:45:32.788Z,5.82
2022-11-27T04:47:59.313Z,6.08
2022-11-27T04:50:25.887Z,6.16
2022-11-27T04:52:52.358Z,5.79
2022-11-27T04:55:18.868Z,5.66
2022-11-27T04:57:45.464Z,5.79
2022-11-27T05:00:12.725Z,5.81
2022-11-27T05:02:40.027Z,5.70
2022-11-27T05:05:06.967Z,5.99
2022-11-27T05:07:33.508Z,5.78
2022-11-27T05:10:00.140Z,5.54
2022-11-27T05:12:26.705Z,5.30
2022-11-27T05:14:53.219Z,5.22
2022-11-27T05:17:19.906Z,5.31
2022-11-27T05:19:46.608Z,5.23
2022-11-27T05:22:13.191Z,5.27
2022-11-27T05:24:39.949Z,5.29
2022-11-27T05:27:06.767Z,5.13
2022-11-27T05:29:33.341Z,5.00
2022-11-27T05:31:59.882Z,4.99
2022-11-27T05:34:26.514Z,5.07
2022-11-27T05:36:53.169Z,5.05
2022-11-27T05:39:19.676Z,4.94
2022-11-27T05:41:46.136Z,5.15
2022-11-27T05:44:14.926Z,4.82
2022-11-27T05:46:43.624Z,4.96
2022-11-27T05:49:15.049Z,5.10
2022-11-27T05:51:46.345Z,4.89
2022-11-27T05:54:17.141Z,4.97
2022-11-27T05:56:43.661Z,4.89
2022-11-27T05:59:10.898Z,4.83
2022-11-27T06:01:37.549Z,4.80
2022-11-27T06:04:04.303Z,4.84
2022-11-27T06:06:30.966Z,4.91
2022-11-27T06:08:57.530Z,5.00
2022-11-27T06:11:24.146Z,5.01
2022-11-27T06:13:50.815Z,5.40
2022-11-27T06:16:20.628Z,5.01
2022-11-27T06:18:52.488Z,5.03
2022-11-27T06:21:20.390Z,5.23
2022-11-27T06:23:47.064Z,5.32
2022-11-27T06:26:19.962Z,5.68
2022-11-27T06:28:47.760Z,5.76
2022-11-27T06:31:18.245Z,5.27
2022-11-27T06:33:46.537Z,5.15
2022-11-27T06:36:13.187Z,5.09
2022-11-27T06:38:39.829Z,5.19
2022-11-27T06:41:15.597Z,5.38
2022-11-27T06:43:42.430Z,5.16
2022-11-27T06:46:14.038Z,5.18
2022-11-27T06:48:41.256Z,5.14
2022-11-27T06:51:10.305Z,5.19
2022-11-27T06:53:37.960Z,5.27
2022-11-27T06:56:06.838Z,5.38
2022-11-27T06:58:33.318Z,5.45
2022-11-27T07:01:01.776Z,5.70
2022-11-27T07:03:28.768Z,5.47
2022-11-27T07:05:55.386Z,5.49
2022-11-27T07:08:22.473Z,5.47
2022-11-27T07:10:49.096Z,5.16
2022-11-27T07:13:15.572Z,5.16
2022-11-27T07:15:42.585Z,4.84
2022-11-27T07:18:11.733Z,5.02
2022-11-27T07:20:38.259Z,5.51
2022-11-27T07:23:04.786Z,5.53
2022-11-27T07:25:31.345Z,5.43
2022-11-27T07:27:57.883Z,5.13
2022-11-27T07:30:24.516Z,5.15
2022-11-27T07:32:51.038Z,5.00
2022-11-27T07:35:17.896Z,5.21
2022-11-27T07:37:44.505Z,5.97
2022-11-27T07:40:11.196Z,5.84
2022-11-27T07:42:39.052Z,6.36
2022-11-27T07:45:07.948Z,6.74
2022-11-27T07:47:34.518Z,6.73
2022-11-27T07:50:01.243Z,6.29
2022-11-27T07:52:27.875Z,5.97
2022-11-27T07:54:54.461Z,5.97
2022-11-27T07:57:21.220Z,5.81
2022-11-27T07:59:48.057Z,6.41
2022-11-27T08:02:14.803Z,7.78
2022-11-27T08:04:41.716Z,6.98
2022-11-27T08:07:08.500Z,7.89
2022-11-27T08:09:35.255Z,7.69
2022-11-27T08:12:01.802Z,8.93
2022-11-27T08:14:28.281Z,8.09
2022-11-27T08:16:54.922Z,8.85
2022-11-27T08:19:21.893Z,9.92
2022-11-27T08:21:48.429Z,9.23
2022-11-27T08:24:14.912Z,7.88
2022-11-27T08:26:41.707Z,8.62
2022-11-27T08:29:11.729Z,9.27
2022-11-27T08:31:38.615Z,8.75
2022-11-27T08:34:05.273Z,10.02
2022-11-27T08:36:31.747Z,10.04
2022-11-27T08:38:58.276Z,10.36
2022-11-27T08:41:24.764Z,10.80
2022-11-27T08:43:51.374Z,11.58
2022-11-27T08:46:17.939Z,11.67
2022-11-27T08:48:44.588Z,10.71
2022-11-27T08:51:13.477Z,11.97
2022-11-27T08:53:40.269Z,11.70
2022-11-27T08:56:17.420Z,9.97
2022-11-27T08:58:44.916Z,9.45
2022-11-27T09:01:15.458Z,9.16
2022-11-27T09:03:42.053Z,10.31
2022-11-27T09:06:10.503Z,10.15
2022-11-27T09:08:40.796Z,11.83
2022-11-27T09:11:08.769Z,13.24
2022-11-27T09:13:36.976Z,11.27
2022-11-27T09:16:05.470Z,10.32
2022-11-27T09:18:32.739Z,11.66
2022-11-27T09:21:05.888Z,12.18
2022-11-27T09:23:32.788Z,11.39
2022-11-27T09:26:04.086Z,12.04
2022-11-27T09:28:32.058Z,11.14
2022-11-27T09:31:00.702Z,9.93
2022-11-27T09:33:29.692Z,10.47
2022-11-27T09:35:57.001Z,10.88
2022-11-27T09:38:26.606Z,10.60
2022-11-27T09:41:02.990Z,10.26
2022-11-27T09:43:36.782Z,10.65
2022-11-27T09:46:09.125Z,11.40
2022-11-27T09:48:41.512Z,10.26
2022-11-27T09:51:25.245Z,11.17
2022-11-27T09:54:04.426Z,10.43
2022-11-27T09:56:34.457Z,10.65
2022-11-27T09:59:02.199Z,10.85
2022-11-27T10:01:38.491Z,10.81
2022-11-27T10:04:18.550Z,10.98
2022-11-27T10:07:14.654Z,10.18
2022-11-27T10:10:14.958Z,10.04
2022-11-27T10:12:41.457Z,10.97
2022-11-27T10:15:25.175Z,10.40
2022-11-27T10:18:09.113Z,10.14
2022-11-27T10:21:03.297Z,9.88
2022-11-27T10:23:32.676Z,10.78
2022-11-27T10:26:04.070Z,11.76
2022-11-27T10:28:38.585Z,12.31
2022-11-27T10:31:08.071Z,12.11
2022-11-27T10:33:42.351Z,12.85
2022-11-27T10:36:49.000Z,12.30
2022-11-27T10:39:21.996Z,13.19
2022-11-27T10:42:08.778Z,12.28
2022-11-27T10:44:41.479Z,12.33
2022-11-27T10:47:12.076Z,11.96
2022-11-27T10:49:42.770Z,11.39
2022-11-27T10:52:13.979Z,11.92
2022-11-27T10:54:41.349Z,10.93
2022-11-27T10:57:50.044Z,11.77
2022-11-27T11:00:24.010Z,11.21
2022-11-27T11:03:03.696Z,10.27
2022-11-27T11:05:45.623Z,11.00
2022-11-27T11:08:19.889Z,11.14
2022-11-27T11:11:01.796Z,11.40
2022-11-27T11:13:30.658Z,10.80
2022-11-27T11:16:33.319Z,10.47
2022-11-27T11:19:02.499Z,11.28
2022-11-27T11:21:32.353Z,10.77
2022-11-27T11:24:13.988Z,10.65
2022-11-27T11:26:46.257Z,10.58
2022-11-27T11:29:34.651Z,10.44
2022-11-27T11:32:14.018Z,10.69
2022-11-27T11:34:46.704Z,10.29
2022-11-27T11:37:34.508Z,10.23
2022-11-27T11:40:01.059Z,10.54
2022-11-27T11:42:33.281Z,10.55
2022-11-27T11:45:02.905Z,10.84
2022-11-27T11:47:29.955Z,10.69
2022-11-27T11:49:57.366Z,10.91
2022-11-27T11:52:30.107Z,11.07
2022-11-27T11:55:11.847Z,10.91
2022-11-27T11:58:12.905Z,11.17
2022-11-27T12:01:19.412Z,11.31
2022-11-27T12:03:59.233Z,11.22
2022-11-27T12:06:44.190Z,11.56
2022-11-27T12:09:27.060Z,10.64
2022-11-27T12:11:59.279Z,11.40
2022-11-27T12:14:41.301Z,11.56
2022-11-27T12:17:46.548Z,11.82
2022-11-27T12:20:15.178Z,11.21
2022-11-27T12:22:50.955Z,11.45
2022-11-27T12:25:51.407Z,11.26
2022-11-27T12:28:46.633Z,12.52
2022-11-27T12:31:41.351Z,12.61
2022-11-27T12:34:20.709Z,12.51
2022-11-27T12:36:58.637Z,12.68
2022-11-27T12:39:47.214Z,12.77
2022-11-27T12:42:27.761Z,12.26
2022-11-27T12:45:06.224Z,12.62
2022-11-27T12:47:52.021Z,12.04
2022-11-27T12:50:27.346Z,12.27
2022-11-27T12:53:15.409Z,11.35
2022-11-27T12:56:01.027Z,12.79
2022-11-27T12:58:38.828Z,12.10
2022-11-27T13:01:33.232Z,12.96
2022-11-27T13:04:20.891Z,13.03
2022-11-27T13:07:14.783Z,14.37
2022-11-27T13:09:56.161Z,14.47
2022-11-27T13:12:29.444Z,15.26
2022-11-27T13:15:02.544Z,14.21
2022-11-27T13:17:36.988Z,12.85
2022-11-27T13:20:05.838Z,13.54
2022-11-27T13:22:36.064Z,13.16
2022-11-27T13:25:03.879Z,13.51
2022-11-27T13:27:34.585Z,13.43
2022-11-27T13:30:09.196Z,12.36
2022-11-27T13:32:36.128Z,12.34
2022-11-27T13:35:06.779Z,12.64
2022-11-27T13:37:40.834Z,12.77
2022-11-27T13:40:22.135Z,12.40
2022-11-27T13:42:55.058Z,12.22
2022-11-27T13:45:21.641Z,12.17
2022-11-27T13:47:50.395Z,12.03
2022-11-27T13:50:21.039Z,10.96
2022-11-27T13:52:57.040Z,11.60
2022-11-27T13:55:29.544Z,12.05
2022-11-27T13:57:58.006Z,12.54
2022-11-27T14:00:42.812Z,11.97
2022-11-27T14:03:23.336Z,11.52
2022-11-27T14:05:49.947Z,10.93
2022-11-27T14:08:25.457Z,11.21
2022-11-27T14:10:57.702Z,11.10
2022-11-27T14:13:34.193Z,11.05
2022-11-27T14:16:02.281Z,11.16
2022-11-27T14:18:30.894Z,11.23
2022-11-27T14:21:03.043Z,10.68
2022-11-27T14:23:35.459Z,10.70
2022-11-27T14:26:15.245Z,10.36
2022-11-27T14:28:45.243Z,10.45
2022-11-27T14:31:29.995Z,10.61
2022-11-27T14:34:14.897Z,10.19
2022-11-27T14:36:42.727Z,10.19
2022-11-27T14:39:21.102Z,10.54
2022-11-27T14:41:56.399Z,10.19
2022-11-27T14:44:23.058Z,10.46
2022-11-27T14:46:51.247Z,10.54
2022-11-27T14:49:20.161Z,10.75
2022-11-27T14:51:47.712Z,10.50
2022-11-27T14:54:34.217Z,10.73
2022-11-27T14:57:01.295Z,11.08
2022-11-27T14:59:27.879Z,10.75
2022-11-27T15:02:17.231Z,10.95
2022-11-27T15:04:46.236Z,11.45
2022-11-27T15:07:21.635Z,11.03
2022-11-27T15:09:51.521Z,10.69
2022-11-27T15:12:23.726Z,10.61
2022-11-27T15:15:09.119Z,10.13
2022-11-27T15:17:38.665Z,9.79
2022-11-27T15:20:34.908Z,9.60
2022-11-27T15:23:02.421Z,10.03
2022-11-27T15:25:34.910Z,10.24
2022-11-27T15:28:01.429Z,10.21
2022-11-27T15:30:28.359Z,10.45
2022-11-27T15:33:06.383Z,10.12
2022-11-27T15:35:35.263Z,9.89
2022-11-27T15:38:09.824Z,9.98
2022-11-27T15:40:59.115Z,9.79
2022-11-27T15:43:26.142Z,9.97
2022-11-27T15:45:52.886Z,10.25
2022-11-27T15:48:21.060Z,9.76
2022-11-27T15:50:51.586Z,9.53
2022-11-27T15:53:18.824Z,9.28
2022-11-27T15:55:45.456Z,9.17
2022-11-27T15:58:12.003Z,9.06
2022-11-27T16:00:39.748Z,9.48
2022-11-27T16:03:06.410Z,9.28
2022-11-27T16:05:32.916Z,9.22
2022-11-27T16:07:59.510Z,9.78
2022-11-27T16:10:26.214Z,9.64
2022-11-27T16:12:55.231Z,9.33
2022-11-27T16:15:23.505Z,9.30
2022-11-27T16:17:50.877Z,9.20
2022-11-27T16:20:17.457Z,9.27
2022-11-27T16:22:43.973Z,9.37
2022-11-27T16:25:10.518Z,9.35
2022-11-27T16:27:37.192Z,9.33
2022-11-27T16:30:04.384Z,9.17
2022-11-27T16:32:31.020Z,9.29
2022-11-27T16:34:57.494Z,9.58
2022-11-27T16:37:24.181Z,9.61
2022-11-27T16:39:50.724Z,9.09
2022-11-27T16:42:21.196Z,9.00
2022-11-27T16:44:47.909Z,9.09
2022-11-27T16:47:15.618Z,9.03
2022-11-27T16:49:42.756Z,9.06
2022-11-27T16:52:11.882Z,8.87
2022-11-27T16:54:38.591Z,9.09
2022-11-27T16:57:05.240Z,9.31
2022-11-27T16:59:31.912Z,8.77
2022-11-27T17:01:58.469Z,9.45
2022-11-27T17:04:25.014Z,9.26
2022-11-27T17:06:51.558Z,8.81
2022-11-27T17:09:18.213Z,8.93
2022-11-27T17:11:48.587Z,8.69
2022-11-27T17:14:16.254Z,8.75
2022-11-27T17:16:43.319Z,8.85
2022-11-27T17:19:13.072Z,8.98
2022-11-27T17:21:40.203Z,8.88
2022-11-27T17:24:15.114Z,8.87
2022-11-27T17:26:43.485Z,8.99
2022-11-27T17:29:11.639Z,9.31
2022-11-27T17:31:38.820Z,9.37
2022-11-27T17:34:05.833Z,9.21
2022-11-27T17:36:36.897Z,9.22
2022-11-27T17:39:06.058Z,9.07
2022-11-27T17:41:33.272Z,9.42
2022-11-27T17:44:00.405Z,8.80
2022-11-27T17:46:28.764Z,9.02
2022-11-27T17:48:58.893Z,8.88
2022-11-27T17:51:26.277Z,8.87
2022-11-27T17:53:52.961Z,8.87
2022-11-27T17:56:20.571Z,9.05
2022-11-27T17:58:47.475Z,9.08
2022-11-27T18:01:17.530Z,8.68
2022-11-27T18:03:46.050Z,8.92
2022-11-27T18:06:13.611Z,9.21
2022-11-27T18:08:40.563Z,8.61
2022-11-27T18:11:13.171Z,8.79
2022-11-27T18:13:40.179Z,8.93
2022-11-27T18:16:11.980Z,8.66
2022-11-27T18:18:39.236Z,8.78
2022-11-27T18:21:18.207Z,8.57
2022-11-27T18:24:20.590Z,8.39
2022-11-27T18:27:00.467Z,8.84
2022-11-27T18:29:22.059Z,8.77
2022-11-27T18:31:49.953Z,8.59
2022-11-27T18:34:16.565Z,8.43
2022-11-27T18:36:43.263Z,8.56
2022-11-27T18:39:09.799Z,8.37
2022-11-27T18:41:37.174Z,8.86
2022-11-27T18:44:04.375Z,8.67
2022-11-27T18:46:31.183Z,8.46
2022-11-27T18:48:57.852Z,8.39
2022-11-27T18:51:26.514Z,8.15
2022-11-27T18:53:53.352Z,8.67
2022-11-27T18:56:22.120Z,8.51
2022-11-27T18:58:48.972Z,8.60
2022-11-27T19:01:19.134Z,8.97
2022-11-27T19:03:49.069Z,8.72
2022-11-27T19:06:17.930Z,8.66
2022-11-27T19:08:45.182Z,8.59
2022-11-27T19:11:14.433Z,9.05
2022-11-27T19:13:42.392Z,9.11
2022-11-27T19:16:12.143Z,8.87
2022-11-27T19:18:38.910Z,8.38
2022-11-27T19:21:26.049Z,8.93
2022-11-27T19:23:53.434Z,8.84
2022-11-27T19:26:25.321Z,8.78
2022-11-27T19:28:53.969Z,8.44
2022-11-27T19:31:21.642Z,8.62
2022-11-27T19:33:53.218Z,9.04
2022-11-27T19:36:20.196Z,8.67
2022-11-27T19:38:47.133Z,8.64
2022-11-27T19:41:17.967Z,9.03
2022-11-27T19:43:45.300Z,9.45
2022-11-27T19:46:23.300Z,8.40
2022-11-27T19:48:50.698Z,8.45
2022-11-27T19:51:17.248Z,8.72
2022-11-27T19:53:43.886Z,8.30
2022-11-27T19:56:10.684Z,8.64
2022-11-27T19:58:37.389Z,8.59
2022-11-27T20:01:17.305Z,8.63
2022-11-27T20:03:45.088Z,8.93
2022-11-27T20:06:15.488Z,8.82
2022-11-27T20:08:43.325Z,8.73
2022-11-27T20:11:12.385Z,8.15
2022-11-27T20:13:39.330Z,8.06
2022-11-27T20:16:18.050Z,7.61
2022-11-27T20:18:45.139Z,8.32
2022-11-27T20:21:14.649Z,8.12
2022-11-27T20:23:42.175Z,7.86
2022-11-27T20:26:12.318Z,8.16
2022-11-27T20:28:41.183Z,8.48
2022-11-27T20:31:12.967Z,8.01
2022-11-27T20:33:39.552Z,8.30
2022-11-27T20:36:17.288Z,8.53
2022-11-27T20:38:43.943Z,8.12
2022-11-27T20:41:13.129Z,7.90
2022-11-27T20:43:40.312Z,7.93
2022-11-27T20:46:10.368Z,8.26
2022-11-27T20:48:38.721Z,8.51
2022-11-27T20:51:08.179Z,8.37
2022-11-27T20:53:34.995Z,8.47
2022-11-27T20:56:07.121Z,8.89
2022-11-27T20:58:38.331Z,8.97
2022-11-27T21:01:18.873Z,9.03
2022-11-27T21:03:46.845Z,8.65
2022-11-27T21:06:14.675Z,8.12
2022-11-27T21:08:41.273Z,8.32
2022-11-27T21:11:12.418Z,8.58
2022-11-27T21:13:39.854Z,8.76
2022-11-27T21:16:10.915Z,8.47
2022-11-27T21:18:38.421Z,8.55
2022-11-27T21:21:11.281Z,8.07
2022-11-27T21:23:41.736Z,8.24
2022-11-27T21:26:09.030Z,8.57
2022-11-27T21:28:35.666Z,8.53
2022-11-27T21:31:11.219Z,8.45
2022-11-27T21:33:37.956Z,9.02
2022-11-27T21:36:05.375Z,8.42
2022-11-27T21:38:32.016Z,8.52
2022-11-27T21:41:00.626Z,8.89
2022-11-27T21:43:27.679Z,8.39
2022-11-27T21:45:54.579Z,8.50
2022-11-27T21:48:21.770Z,8.73
2022-11-27T21:50:48.429Z,8.36
2022-11-27T21:53:15.076Z,8.52
2022-11-27T21:55:42.640Z,8.95
2022-11-27T21:58:09.178Z,8.44
2022-11-27T22:00:36.843Z,8.08
2022-11-27T22:03:03.450Z,7.83
2022-11-27T22:05:30.057Z,8.39
2022-11-27T22:07:56.709Z,8.61
2022-11-27T22:10:23.408Z,8.23
2022-11-27T22:12:50.013Z,8.39
2022-11-27T22:15:16.700Z,8.65
2022-11-27T22:17:43.311Z,7.97
2022-11-27T22:20:10.182Z,8.67
2022-11-27T22:22:36.710Z,8.34
2022-11-27T22:25:04.569Z,8.19
2022-11-27T22:27:31.199Z,8.41
2022-11-27T22:29:57.711Z,8.67
2022-11-27T22:32:24.245Z,8.70
2022-11-27T22:34:51.346Z,8.57
2022-11-27T22:37:17.836Z,8.42
2022-11-27T22:39:44.507Z,7.86
2022-11-27T22:42:12.162Z,7.99
2022-11-27T22:44:39.226Z,8.16
2022-11-27T22:47:05.919Z,8.54
2022-11-27T22:49:32.394Z,8.04
2022-11-27T22:51:58.888Z,8.50
2022-11-27T22:54:25.457Z,8.70
2022-11-27T22:56:51.915Z,8.23
2022-11-27T22:59:34.676Z,8.48
2022-11-27T23:02:02.965Z,8.50
2022-11-27T23:04:29.700Z,8.06
2022-11-27T23:06:56.331Z,8.03
2022-11-27T23:09:23.132Z,7.90
2022-11-27T23:11:49.883Z,7.60
2022-11-27T23:14:16.722Z,7.49
2022-11-27T23:16:43.665Z,8.13
2022-11-27T23:19:11.077Z,7.79
2022-11-27T23:21:39.007Z,7.69
2022-11-27T23:24:07.919Z,7.68
2022-11-27T23:26:34.460Z,7.92
2022-11-27T23:29:01.092Z,7.86
2022-11-27T23:31:31.092Z,7.86
2022-11-27T23:34:01.228Z,8.12
2022-11-27T23:36:28.584Z,8.12
2022-11-27T23:38:55.089Z,7.68
2022-11-27T23:41:24.366Z,7.57
2022-11-27T23:43:52.369Z,7.40
2022-11-27T23:46:21.121Z,7.41
2022-11-27T23:48:47.801Z,7.60
2022-11-27T23:51:19.947Z,7.65
2022-11-27T23:53:47.320Z,7.54
2022-11-27T23:56:17.981Z,7.31
2022-11-27T23:58:47.378Z,7.45
